Briefing drone pour Saint-peray

Rechercher une autre localisation

Conditions de vol :


Nous sommes le : Jeudi 01 octobre 2020
Il est 21:53 UTC (23:53 LT)

Lever de soleil : 05:12 UTC (07:12 LT)
Coucher de soleil : 17:47 UTC (19:47 LT)

Météo

L'essentiel des conditions de vol

VIGILANCE MÉTÉO FRANCE - Ardèche (07)
Vigilance Jaune : Orages / Pluie-inondation / Vent violent / Inondation
METAR de LFLU
LFLU 011800Z AUTO 00000KT CAVOK 17/14 Q1005

Date d'émission: 01/10/2020
Heure d'émission: 18:00 UTC
Vent: Calme
Visibilité horizontale: > 10 km
Plafond : Plafond et visibilité OK (CAVOK)
Température: 17 °C
Point de rosée: 14 °C
Humidité: 83%
Pression (QNH): 1005 hPa
Prévision 24h pour Valence (3 km)
Vent : 311° pour 5 KT (18 km/h)
Temperature Maxi: 11 °C
Temperature Min: 11 °C
Humidité : 92%
Condition : Forte pluie



Warning: count(): Parameter must be an array or an object that implements Countable in /homepages/6/d509196549/htdocs/droneoxygene/briefing.php on line 743
WEBCAM POUR SAINT-PERAY

Réglementation

Voler en sécurité

CARTES AERONAUTIQUE 1/500.000
CARTES VAC (LFLU)
SUP AIP




Chargement des AIP...
NOTAM (SAINT-PERAY + Terrain à proximité / FIR )




Chargement des NOTAMS...
CONTACT PREFECTURE 07


Avertissement : Les données mises à disposition sont indicatives. Oxygène Drone ne pourra être tenu responsable de dégâts causés aux biens et aux personnes.